sensor_id;sensor_type;location;lat;lon;timestamp;P1;durP1;ratioP1;P2;durP2;ratioP2
21860;SDS011;11095;48.066;8.540;2023-03-21T00:01:03;3.90;;;3.00;;
21860;SDS011;11095;48.066;8.540;2023-03-21T00:03:30;3.65;;;2.63;;
21860;SDS011;11095;48.066;8.540;2023-03-21T00:05:58;5.95;;;3.47;;
21860;SDS011;11095;48.066;8.540;2023-03-21T00:08:29;4.38;;;3.22;;
21860;SDS011;11095;48.066;8.540;2023-03-21T00:10:59;4.47;;;3.20;;
21860;SDS011;11095;48.066;8.540;2023-03-21T00:13:26;3.47;;;2.80;;
21860;SDS011;11095;48.066;8.540;2023-03-21T00:15:57;3.70;;;3.03;;
21860;SDS011;11095;48.066;8.540;2023-03-21T00:18:43;3.63;;;2.83;;
21860;SDS011;11095;48.066;8.540;2023-03-21T00:21:12;4.30;;;3.10;;
21860;SDS011;11095;48.066;8.540;2023-03-21T00:23:42;3.95;;;3.13;;
21860;SDS011;11095;48.066;8.540;2023-03-21T00:26:09;4.45;;;3.38;;
21860;SDS011;11095;48.066;8.540;2023-03-21T00:28:38;6.05;;;3.53;;
21860;SDS011;11095;48.066;8.540;2023-03-21T00:31:05;4.07;;;3.10;;
21860;SDS011;11095;48.066;8.540;2023-03-21T00:33:31;4.25;;;3.10;;
21860;SDS011;11095;48.066;8.540;2023-03-21T00:35:58;4.82;;;3.00;;
21860;SDS011;11095;48.066;8.540;2023-03-21T00:38:24;3.95;;;3.17;;
21860;SDS011;11095;48.066;8.540;2023-03-21T00:40:50;4.40;;;3.22;;
21860;SDS011;11095;48.066;8.540;2023-03-21T00:43:16;4.70;;;3.42;;
21860;SDS011;11095;48.066;8.540;2023-03-21T00:45:43;4.95;;;3.20;;
21860;SDS011;11095;48.066;8.540;2023-03-21T00:48:10;4.25;;;3.22;;
21860;SDS011;11095;48.066;8.540;2023-03-21T00:50:37;4.85;;;3.10;;
21860;SDS011;11095;48.066;8.540;2023-03-21T00:53:04;3.85;;;2.95;;
21860;SDS011;11095;48.066;8.540;2023-03-21T00:55:30;4.22;;;3.08;;
21860;SDS011;11095;48.066;8.540;2023-03-21T00:57:56;4.28;;;3.20;;
21860;SDS011;11095;48.066;8.540;2023-03-21T01:00:22;3.88;;;3.15;;
21860;SDS011;11095;48.066;8.540;2023-03-21T01:02:48;4.35;;;3.40;;
21860;SDS011;11095;48.066;8.540;2023-03-21T01:05:23;4.65;;;3.53;;
21860;SDS011;11095;48.066;8.540;2023-03-21T01:08:13;4.78;;;3.10;;
21860;SDS011;11095;48.066;8.540;2023-03-21T01:10:41;3.25;;;2.92;;
21860;SDS011;11095;48.066;8.540;2023-03-21T01:13:08;4.85;;;3.17;;
21860;SDS011;11095;48.066;8.540;2023-03-21T01:15:35;4.15;;;2.90;;
21860;SDS011;11095;48.066;8.540;2023-03-21T01:18:06;3.42;;;2.90;;
21860;SDS011;11095;48.066;8.540;2023-03-21T01:20:32;3.35;;;2.70;;
21860;SDS011;11095;48.066;8.540;2023-03-21T01:22:59;3.65;;;2.70;;
21860;SDS011;11095;48.066;8.540;2023-03-21T01:25:25;4.30;;;2.70;;
21860;SDS011;11095;48.066;8.540;2023-03-21T01:27:50;3.30;;;2.85;;
21860;SDS011;11095;48.066;8.540;2023-03-21T01:30:17;4.95;;;3.10;;
21860;SDS011;11095;48.066;8.540;2023-03-21T01:32:42;3.95;;;2.92;;
21860;SDS011;11095;48.066;8.540;2023-03-21T01:35:08;4.05;;;2.92;;
21860;SDS011;11095;48.066;8.540;2023-03-21T01:37:34;3.42;;;2.90;;
21860;SDS011;11095;48.066;8.540;2023-03-21T01:39:59;3.22;;;2.58;;
21860;SDS011;11095;48.066;8.540;2023-03-21T01:42:25;4.05;;;3.00;;
21860;SDS011;11095;48.066;8.540;2023-03-21T01:45:02;4.38;;;3.10;;
21860;SDS011;11095;48.066;8.540;2023-03-21T01:47:30;4.43;;;3.00;;
21860;SDS011;11095;48.066;8.540;2023-03-21T01:49:57;4.72;;;3.50;;
21860;SDS011;11095;48.066;8.540;2023-03-21T01:52:27;3.50;;;3.15;;
21860;SDS011;11095;48.066;8.540;2023-03-21T01:54:56;4.25;;;3.25;;
21860;SDS011;11095;48.066;8.540;2023-03-21T01:57:31;3.97;;;2.95;;
21860;SDS011;11095;48.066;8.540;2023-03-21T02:00:02;5.30;;;3.00;;
21860;SDS011;11095;48.066;8.540;2023-03-21T02:02:38;3.85;;;3.08;;
21860;SDS011;11095;48.066;8.540;2023-03-21T02:05:15;3.72;;;3.20;;
21860;SDS011;11095;48.066;8.540;2023-03-21T02:07:44;3.20;;;2.70;;
21860;SDS011;11095;48.066;8.540;2023-03-21T02:10:11;4.03;;;2.80;;
21860;SDS011;11095;48.066;8.540;2023-03-21T02:12:40;3.40;;;2.75;;
21860;SDS011;11095;48.066;8.540;2023-03-21T02:15:06;4.50;;;3.35;;
21860;SDS011;11095;48.066;8.540;2023-03-21T02:20:12;4.00;;;3.00;;
21860;SDS011;11095;48.066;8.540;2023-03-21T02:31:04;3.80;;;2.70;;
21860;SDS011;11095;48.066;8.540;2023-03-21T02:33:37;3.67;;;2.70;;
21860;SDS011;11095;48.066;8.540;2023-03-21T02:36:16;4.07;;;2.92;;
21860;SDS011;11095;48.066;8.540;2023-03-21T02:41:18;3.35;;;2.70;;
21860;SDS011;11095;48.066;8.540;2023-03-21T02:44:13;3.83;;;2.90;;
21860;SDS011;11095;48.066;8.540;2023-03-21T02:52:15;4.68;;;2.80;;
21860;SDS011;11095;48.066;8.540;2023-03-21T02:54:44;4.55;;;2.70;;
21860;SDS011;11095;48.066;8.540;2023-03-21T02:57:12;2.72;;;2.40;;
21860;SDS011;11095;48.066;8.540;2023-03-21T02:59:40;3.40;;;2.58;;
21860;SDS011;11095;48.066;8.540;2023-03-21T03:02:07;3.90;;;2.90;;
21860;SDS011;11095;48.066;8.540;2023-03-21T03:04:33;3.10;;;2.42;;
21860;SDS011;11095;48.066;8.540;2023-03-21T03:17:53;3.72;;;2.55;;
21860;SDS011;11095;48.066;8.540;2023-03-21T03:20:38;2.80;;;2.20;;
21860;SDS011;11095;48.066;8.540;2023-03-21T03:23:47;2.75;;;2.30;;
21860;SDS011;11095;48.066;8.540;2023-03-21T03:26:18;3.25;;;2.15;;
21860;SDS011;11095;48.066;8.540;2023-03-21T03:28:58;3.90;;;2.40;;
21860;SDS011;11095;48.066;8.540;2023-03-21T03:31:30;3.13;;;2.33;;
21860;SDS011;11095;48.066;8.540;2023-03-21T03:34:09;2.55;;;2.30;;
21860;SDS011;11095;48.066;8.540;2023-03-21T03:36:39;2.60;;;2.28;;
21860;SDS011;11095;48.066;8.540;2023-03-21T03:39:09;2.83;;;2.20;;
21860;SDS011;11095;48.066;8.540;2023-03-21T03:41:41;2.53;;;2.20;;
21860;SDS011;11095;48.066;8.540;2023-03-21T03:44:14;3.00;;;2.28;;
21860;SDS011;11095;48.066;8.540;2023-03-21T03:49:24;3.10;;;2.30;;
21860;SDS011;11095;48.066;8.540;2023-03-21T03:51:54;3.05;;;2.30;;
21860;SDS011;11095;48.066;8.540;2023-03-21T03:54:32;2.42;;;2.20;;
21860;SDS011;11095;48.066;8.540;2023-03-21T03:57:02;2.40;;;2.10;;
21860;SDS011;11095;48.066;8.540;2023-03-21T03:59:29;2.42;;;1.95;;
21860;SDS011;11095;48.066;8.540;2023-03-21T04:01:59;2.88;;;2.22;;
21860;SDS011;11095;48.066;8.540;2023-03-21T04:04:25;2.60;;;2.20;;
21860;SDS011;11095;48.066;8.540;2023-03-21T04:06:53;2.40;;;2.00;;
21860;SDS011;11095;48.066;8.540;2023-03-21T04:09:19;2.30;;;2.05;;
21860;SDS011;11095;48.066;8.540;2023-03-21T04:11:45;3.83;;;2.90;;
21860;SDS011;11095;48.066;8.540;2023-03-21T04:14:11;3.40;;;2.40;;
21860;SDS011;11095;48.066;8.540;2023-03-21T04:16:37;2.65;;;2.03;;
21860;SDS011;11095;48.066;8.540;2023-03-21T04:19:02;5.03;;;2.75;;
21860;SDS011;11095;48.066;8.540;2023-03-21T04:21:28;3.67;;;2.50;;
21860;SDS011;11095;48.066;8.540;2023-03-21T04:23:54;2.80;;;2.40;;
21860;SDS011;11095;48.066;8.540;2023-03-21T04:26:20;2.67;;;2.17;;
21860;SDS011;11095;48.066;8.540;2023-03-21T04:28:47;3.05;;;2.15;;
21860;SDS011;11095;48.066;8.540;2023-03-21T04:31:13;3.40;;;2.60;;
21860;SDS011;11095;48.066;8.540;2023-03-21T04:33:39;2.55;;;2.28;;
21860;SDS011;11095;48.066;8.540;2023-03-21T04:36:05;3.75;;;2.33;;
21860;SDS011;11095;48.066;8.540;2023-03-21T04:38:33;3.83;;;2.50;;
21860;SDS011;11095;48.066;8.540;2023-03-21T04:41:00;2.75;;;2.10;;
21860;SDS011;11095;48.066;8.540;2023-03-21T04:43:26;2.80;;;2.20;;
21860;SDS011;11095;48.066;8.540;2023-03-21T04:45:53;2.50;;;2.10;;
21860;SDS011;11095;48.066;8.540;2023-03-21T04:48:19;2.67;;;2.47;;
21860;SDS011;11095;48.066;8.540;2023-03-21T04:50:49;3.47;;;2.35;;
21860;SDS011;11095;48.066;8.540;2023-03-21T04:53:15;2.58;;;2.35;;
21860;SDS011;11095;48.066;8.540;2023-03-21T04:55:41;2.80;;;2.10;;
21860;SDS011;11095;48.066;8.540;2023-03-21T04:58:07;3.22;;;2.33;;
21860;SDS011;11095;48.066;8.540;2023-03-21T05:00:33;4.28;;;2.50;;
21860;SDS011;11095;48.066;8.540;2023-03-21T05:03:05;3.70;;;2.15;;
21860;SDS011;11095;48.066;8.540;2023-03-21T05:05:35;2.47;;;2.17;;
21860;SDS011;11095;48.066;8.540;2023-03-21T05:08:01;2.92;;;2.28;;
21860;SDS011;11095;48.066;8.540;2023-03-21T05:10:27;3.10;;;2.47;;
21860;SDS011;11095;48.066;8.540;2023-03-21T05:12:53;3.20;;;2.40;;
21860;SDS011;11095;48.066;8.540;2023-03-21T05:15:18;2.45;;;2.08;;
21860;SDS011;11095;48.066;8.540;2023-03-21T05:17:44;2.85;;;2.30;;
21860;SDS011;11095;48.066;8.540;2023-03-21T05:20:12;4.70;;;2.47;;
21860;SDS011;11095;48.066;8.540;2023-03-21T05:22:39;6.38;;;2.80;;
21860;SDS011;11095;48.066;8.540;2023-03-21T05:25:08;3.25;;;2.58;;
21860;SDS011;11095;48.066;8.540;2023-03-21T05:30:34;3.80;;;2.80;;
21860;SDS011;11095;48.066;8.540;2023-03-21T05:32:53;4.70;;;3.50;;
21860;SDS011;11095;48.066;8.540;2023-03-21T05:35:19;4.90;;;3.22;;
21860;SDS011;11095;48.066;8.540;2023-03-21T05:37:45;3.00;;;2.70;;
21860;SDS011;11095;48.066;8.540;2023-03-21T05:40:10;3.55;;;2.83;;
21860;SDS011;11095;48.066;8.540;2023-03-21T05:42:36;3.83;;;3.30;;
21860;SDS011;11095;48.066;8.540;2023-03-21T05:45:02;4.60;;;3.40;;
21860;SDS011;11095;48.066;8.540;2023-03-21T05:47:28;6.28;;;3.80;;
21860;SDS011;11095;48.066;8.540;2023-03-21T05:49:55;4.38;;;3.53;;
21860;SDS011;11095;48.066;8.540;2023-03-21T05:52:20;3.53;;;3.13;;
21860;SDS011;11095;48.066;8.540;2023-03-21T05:54:46;4.35;;;2.75;;
21860;SDS011;11095;48.066;8.540;2023-03-21T05:57:12;2.83;;;2.22;;
21860;SDS011;11095;48.066;8.540;2023-03-21T05:59:38;2.53;;;2.03;;
21860;SDS011;11095;48.066;8.540;2023-03-21T06:02:03;2.03;;;1.70;;
21860;SDS011;11095;48.066;8.540;2023-03-21T06:04:29;1.60;;;1.50;;
21860;SDS011;11095;48.066;8.540;2023-03-21T06:06:55;2.50;;;1.60;;
21860;SDS011;11095;48.066;8.540;2023-03-21T06:09:21;2.47;;;1.95;;
21860;SDS011;11095;48.066;8.540;2023-03-21T06:11:47;2.53;;;1.60;;
21860;SDS011;11095;48.066;8.540;2023-03-21T06:14:16;2.65;;;1.60;;
21860;SDS011;11095;48.066;8.540;2023-03-21T06:16:42;2.83;;;1.40;;
21860;SDS011;11095;48.066;8.540;2023-03-21T06:19:07;1.70;;;1.20;;
21860;SDS011;11095;48.066;8.540;2023-03-21T06:21:33;3.28;;;1.40;;
21860;SDS011;11095;48.066;8.540;2023-03-21T06:23:59;1.45;;;1.20;;
21860;SDS011;11095;48.066;8.540;2023-03-21T06:26:24;2.60;;;1.30;;
21860;SDS011;11095;48.066;8.540;2023-03-21T06:28:50;2.00;;;1.33;;
21860;SDS011;11095;48.066;8.540;2023-03-21T06:31:17;2.53;;;1.40;;
21860;SDS011;11095;48.066;8.540;2023-03-21T06:33:46;2.20;;;1.30;;
21860;SDS011;11095;48.066;8.540;2023-03-21T06:36:12;2.55;;;1.30;;
21860;SDS011;11095;48.066;8.540;2023-03-21T06:38:38;1.30;;;1.17;;
21860;SDS011;11095;48.066;8.540;2023-03-21T06:41:04;1.63;;;1.20;;
21860;SDS011;11095;48.066;8.540;2023-03-21T06:43:31;1.33;;;1.20;;
21860;SDS011;11095;48.066;8.540;2023-03-21T06:45:57;2.20;;;1.15;;
21860;SDS011;11095;48.066;8.540;2023-03-21T06:48:23;1.45;;;1.00;;
21860;SDS011;11095;48.066;8.540;2023-03-21T06:50:50;1.90;;;1.23;;
21860;SDS011;11095;48.066;8.540;2023-03-21T06:53:16;1.85;;;1.08;;
21860;SDS011;11095;48.066;8.540;2023-03-21T06:55:48;1.92;;;1.30;;
21860;SDS011;11095;48.066;8.540;2023-03-21T06:58:15;3.10;;;1.45;;
21860;SDS011;11095;48.066;8.540;2023-03-21T07:00:41;3.00;;;1.60;;
21860;SDS011;11095;48.066;8.540;2023-03-21T07:03:08;1.95;;;1.75;;
21860;SDS011;11095;48.066;8.540;2023-03-21T07:05:35;1.50;;;1.40;;
21860;SDS011;11095;48.066;8.540;2023-03-21T07:08:01;1.98;;;1.50;;
21860;SDS011;11095;48.066;8.540;2023-03-21T07:10:27;3.05;;;1.80;;
21860;SDS011;11095;48.066;8.540;2023-03-21T07:12:52;2.42;;;1.63;;
21860;SDS011;11095;48.066;8.540;2023-03-21T07:15:18;2.15;;;1.50;;
21860;SDS011;11095;48.066;8.540;2023-03-21T07:17:44;2.08;;;1.67;;
21860;SDS011;11095;48.066;8.540;2023-03-21T07:20:10;4.03;;;1.80;;
21860;SDS011;11095;48.066;8.540;2023-03-21T07:22:36;2.20;;;1.55;;
21860;SDS011;11095;48.066;8.540;2023-03-21T07:25:02;2.33;;;1.60;;
21860;SDS011;11095;48.066;8.540;2023-03-21T07:27:29;1.77;;;1.40;;
21860;SDS011;11095;48.066;8.540;2023-03-21T07:29:54;2.60;;;1.35;;
21860;SDS011;11095;48.066;8.540;2023-03-21T07:32:20;2.53;;;1.33;;
21860;SDS011;11095;48.066;8.540;2023-03-21T07:34:46;1.20;;;1.10;;
21860;SDS011;11095;48.066;8.540;2023-03-21T07:37:12;2.05;;;1.20;;
21860;SDS011;11095;48.066;8.540;2023-03-21T07:39:37;2.33;;;1.30;;
21860;SDS011;11095;48.066;8.540;2023-03-21T07:42:03;1.85;;;1.00;;
21860;SDS011;11095;48.066;8.540;2023-03-21T07:44:29;1.35;;;1.20;;
21860;SDS011;11095;48.066;8.540;2023-03-21T07:46:54;1.35;;;1.23;;
21860;SDS011;11095;48.066;8.540;2023-03-21T07:49:20;2.40;;;1.20;;
21860;SDS011;11095;48.066;8.540;2023-03-21T07:51:46;2.53;;;1.33;;
21860;SDS011;11095;48.066;8.540;2023-03-21T07:54:11;1.40;;;1.30;;
21860;SDS011;11095;48.066;8.540;2023-03-21T07:56:37;1.83;;;1.20;;
21860;SDS011;11095;48.066;8.540;2023-03-21T07:59:03;1.20;;;1.10;;
21860;SDS011;11095;48.066;8.540;2023-03-21T08:01:29;1.98;;;1.42;;
21860;SDS011;11095;48.066;8.540;2023-03-21T08:03:55;1.63;;;1.40;;
21860;SDS011;11095;48.066;8.540;2023-03-21T08:06:21;1.75;;;1.58;;
21860;SDS011;11095;48.066;8.540;2023-03-21T08:08:51;1.50;;;1.30;;
21860;SDS011;11095;48.066;8.540;2023-03-21T08:11:16;1.90;;;1.48;;
21860;SDS011;11095;48.066;8.540;2023-03-21T08:13:42;2.28;;;1.50;;
21860;SDS011;11095;48.066;8.540;2023-03-21T08:16:08;1.98;;;1.63;;
21860;SDS011;11095;48.066;8.540;2023-03-21T08:18:34;2.15;;;1.70;;
21860;SDS011;11095;48.066;8.540;2023-03-21T08:20:59;2.15;;;1.40;;
21860;SDS011;11095;48.066;8.540;2023-03-21T08:23:25;3.47;;;1.70;;
21860;SDS011;11095;48.066;8.540;2023-03-21T08:25:51;1.63;;;1.38;;
21860;SDS011;11095;48.066;8.540;2023-03-21T08:28:18;2.78;;;1.65;;
21860;SDS011;11095;48.066;8.540;2023-03-21T08:30:45;3.13;;;1.67;;
21860;SDS011;11095;48.066;8.540;2023-03-21T08:33:11;1.80;;;1.60;;
21860;SDS011;11095;48.066;8.540;2023-03-21T08:35:41;2.30;;;1.75;;
21860;SDS011;11095;48.066;8.540;2023-03-21T08:38:07;2.78;;;1.77;;
21860;SDS011;11095;48.066;8.540;2023-03-21T08:40:33;2.28;;;1.92;;
21860;SDS011;11095;48.066;8.540;2023-03-21T08:43:00;2.17;;;1.70;;
21860;SDS011;11095;48.066;8.540;2023-03-21T08:45:26;3.25;;;1.85;;
21860;SDS011;11095;48.066;8.540;2023-03-21T08:47:52;1.77;;;1.60;;
21860;SDS011;11095;48.066;8.540;2023-03-21T08:50:19;3.60;;;1.73;;
21860;SDS011;11095;48.066;8.540;2023-03-21T08:52:47;2.78;;;1.98;;
21860;SDS011;11095;48.066;8.540;2023-03-21T08:55:14;3.95;;;2.10;;
21860;SDS011;11095;48.066;8.540;2023-03-21T08:57:41;2.13;;;1.80;;
21860;SDS011;11095;48.066;8.540;2023-03-21T09:00:07;2.42;;;2.10;;
21860;SDS011;11095;48.066;8.540;2023-03-21T09:02:42;2.97;;;2.22;;
21860;SDS011;11095;48.066;8.540;2023-03-21T09:05:09;3.30;;;2.15;;
21860;SDS011;11095;48.066;8.540;2023-03-21T09:07:38;2.75;;;2.28;;
21860;SDS011;11095;48.066;8.540;2023-03-21T09:10:05;3.88;;;2.20;;
21860;SDS011;11095;48.066;8.540;2023-03-21T09:12:32;3.55;;;2.30;;
21860;SDS011;11095;48.066;8.540;2023-03-21T09:14:58;3.53;;;2.80;;
21860;SDS011;11095;48.066;8.540;2023-03-21T09:17:26;4.50;;;3.10;;
21860;SDS011;11095;48.066;8.540;2023-03-21T09:19:53;3.53;;;3.22;;
21860;SDS011;11095;48.066;8.540;2023-03-21T09:22:19;4.00;;;3.22;;
21860;SDS011;11095;48.066;8.540;2023-03-21T09:24:45;3.85;;;3.05;;
21860;SDS011;11095;48.066;8.540;2023-03-21T09:27:13;3.22;;;2.90;;
21860;SDS011;11095;48.066;8.540;2023-03-21T09:29:41;4.57;;;3.50;;
21860;SDS011;11095;48.066;8.540;2023-03-21T09:32:08;4.65;;;3.30;;
21860;SDS011;11095;48.066;8.540;2023-03-21T09:34:36;3.58;;;3.22;;
21860;SDS011;11095;48.066;8.540;2023-03-21T09:37:05;4.28;;;3.40;;
21860;SDS011;11095;48.066;8.540;2023-03-21T09:39:38;4.20;;;3.25;;
21860;SDS011;11095;48.066;8.540;2023-03-21T09:45:11;3.83;;;3.20;;
21860;SDS011;11095;48.066;8.540;2023-03-21T09:48:09;3.63;;;3.33;;
21860;SDS011;11095;48.066;8.540;2023-03-21T09:50:43;4.28;;;3.15;;
21860;SDS011;11095;48.066;8.540;2023-03-21T09:53:21;4.85;;;3.70;;
21860;SDS011;11095;48.066;8.540;2023-03-21T09:55:52;3.88;;;3.45;;
21860;SDS011;11095;48.066;8.540;2023-03-21T09:58:25;5.82;;;3.47;;
21860;SDS011;11095;48.066;8.540;2023-03-21T10:03:51;4.35;;;3.20;;
21860;SDS011;11095;48.066;8.540;2023-03-21T10:06:18;4.78;;;3.55;;
21860;SDS011;11095;48.066;8.540;2023-03-21T10:08:45;4.32;;;3.47;;
21860;SDS011;11095;48.066;8.540;2023-03-21T10:11:47;5.60;;;3.53;;
21860;SDS011;11095;48.066;8.540;2023-03-21T10:14:14;4.75;;;3.70;;
21860;SDS011;11095;48.066;8.540;2023-03-21T10:16:42;4.30;;;3.80;;
21860;SDS011;11095;48.066;8.540;2023-03-21T10:19:10;5.22;;;3.65;;
21860;SDS011;11095;48.066;8.540;2023-03-21T10:21:42;4.45;;;4.03;;
21860;SDS011;11095;48.066;8.540;2023-03-21T10:24:14;4.68;;;3.80;;
21860;SDS011;11095;48.066;8.540;2023-03-21T10:29:09;5.53;;;3.75;;
21860;SDS011;11095;48.066;8.540;2023-03-21T10:31:38;6.18;;;3.92;;
21860;SDS011;11095;48.066;8.540;2023-03-21T10:34:16;3.75;;;3.42;;
21860;SDS011;11095;48.066;8.540;2023-03-21T10:36:51;4.82;;;3.90;;
21860;SDS011;11095;48.066;8.540;2023-03-21T10:42:03;4.65;;;3.72;;
21860;SDS011;11095;48.066;8.540;2023-03-21T10:44:29;5.05;;;3.90;;
21860;SDS011;11095;48.066;8.540;2023-03-21T10:47:04;5.72;;;3.97;;
21860;SDS011;11095;48.066;8.540;2023-03-21T10:49:33;4.85;;;3.70;;
21860;SDS011;11095;48.066;8.540;2023-03-21T10:52:02;4.63;;;4.10;;
21860;SDS011;11095;48.066;8.540;2023-03-21T10:54:32;4.25;;;3.67;;
21860;SDS011;11095;48.066;8.540;2023-03-21T10:57:03;5.15;;;3.90;;
21860;SDS011;11095;48.066;8.540;2023-03-21T10:59:40;3.97;;;3.55;;
21860;SDS011;11095;48.066;8.540;2023-03-21T11:02:13;4.10;;;3.63;;
21860;SDS011;11095;48.066;8.540;2023-03-21T11:04:42;4.57;;;3.60;;
21860;SDS011;11095;48.066;8.540;2023-03-21T11:07:11;4.18;;;3.53;;
21860;SDS011;11095;48.066;8.540;2023-03-21T11:09:46;3.50;;;3.20;;
21860;SDS011;11095;48.066;8.540;2023-03-21T11:12:12;3.97;;;3.45;;
21860;SDS011;11095;48.066;8.540;2023-03-21T11:14:42;4.43;;;3.83;;
21860;SDS011;11095;48.066;8.540;2023-03-21T11:19:46;3.60;;;3.30;;
21860;SDS011;11095;48.066;8.540;2023-03-21T11:22:14;4.38;;;3.80;;
21860;SDS011;11095;48.066;8.540;2023-03-21T11:24:44;3.70;;;3.15;;
21860;SDS011;11095;48.066;8.540;2023-03-21T11:27:17;5.40;;;3.40;;
21860;SDS011;11095;48.066;8.540;2023-03-21T11:29:49;4.20;;;3.25;;
21860;SDS011;11095;48.066;8.540;2023-03-21T11:32:32;3.40;;;2.85;;
21860;SDS011;11095;48.066;8.540;2023-03-21T11:35:06;3.17;;;2.80;;
21860;SDS011;11095;48.066;8.540;2023-03-21T11:37:45;3.20;;;2.90;;
21860;SDS011;11095;48.066;8.540;2023-03-21T11:40:31;3.90;;;3.00;;
21860;SDS011;11095;48.066;8.540;2023-03-21T11:42:59;4.55;;;3.10;;
21860;SDS011;11095;48.066;8.540;2023-03-21T11:45:27;3.72;;;3.28;;
21860;SDS011;11095;48.066;8.540;2023-03-21T11:47:58;3.08;;;2.78;;
21860;SDS011;11095;48.066;8.540;2023-03-21T11:50:38;4.18;;;3.60;;
21860;SDS011;11095;48.066;8.540;2023-03-21T11:58:12;3.67;;;2.97;;
21860;SDS011;11095;48.066;8.540;2023-03-21T12:06:52;2.25;;;2.05;;
21860;SDS011;11095;48.066;8.540;2023-03-21T12:15:16;2.33;;;2.13;;
21860;SDS011;11095;48.066;8.540;2023-03-21T12:20:40;2.20;;;2.00;;
21860;SDS011;11095;48.066;8.540;2023-03-21T12:26:24;2.40;;;2.03;;
21860;SDS011;11095;48.066;8.540;2023-03-21T12:39:28;2.30;;;2.10;;
21860;SDS011;11095;48.066;8.540;2023-03-21T12:42:03;2.78;;;1.90;;
21860;SDS011;11095;48.066;8.540;2023-03-21T12:44:46;3.13;;;2.33;;
21860;SDS011;11095;48.066;8.540;2023-03-21T12:47:17;3.58;;;2.35;;
21860;SDS011;11095;48.066;8.540;2023-03-21T12:49:48;2.70;;;2.28;;
21860;SDS011;11095;48.066;8.540;2023-03-21T12:52:31;2.53;;;2.30;;
21860;SDS011;11095;48.066;8.540;2023-03-21T12:55:29;4.03;;;2.38;;
21860;SDS011;11095;48.066;8.540;2023-03-21T13:00:27;2.00;;;1.80;;
21860;SDS011;11095;48.066;8.540;2023-03-21T13:06:07;2.10;;;1.75;;
21860;SDS011;11095;48.066;8.540;2023-03-21T13:08:40;2.30;;;2.10;;
21860;SDS011;11095;48.066;8.540;2023-03-21T13:11:18;2.28;;;2.08;;
21860;SDS011;11095;48.066;8.540;2023-03-21T13:13:55;3.15;;;2.00;;
21860;SDS011;11095;48.066;8.540;2023-03-21T13:21:41;2.65;;;2.45;;
21860;SDS011;11095;48.066;8.540;2023-03-21T13:30:03;3.65;;;2.40;;
21860;SDS011;11095;48.066;8.540;2023-03-21T13:32:37;2.42;;;2.00;;
21860;SDS011;11095;48.066;8.540;2023-03-21T13:37:48;2.58;;;2.10;;
21860;SDS011;11095;48.066;8.540;2023-03-21T13:40:26;4.22;;;2.78;;
21860;SDS011;11095;48.066;8.540;2023-03-21T13:42:58;3.20;;;2.25;;
21860;SDS011;11095;48.066;8.540;2023-03-21T13:45:46;3.17;;;2.85;;
21860;SDS011;11095;48.066;8.540;2023-03-21T13:48:26;3.25;;;2.90;;
21860;SDS011;11095;48.066;8.540;2023-03-21T13:51:03;2.90;;;2.65;;
21860;SDS011;11095;48.066;8.540;2023-03-21T13:53:35;2.70;;;2.25;;
21860;SDS011;11095;48.066;8.540;2023-03-21T13:58:37;2.65;;;2.30;;
21860;SDS011;11095;48.066;8.540;2023-03-21T14:06:56;3.38;;;2.50;;
21860;SDS011;11095;48.066;8.540;2023-03-21T14:09:30;3.40;;;2.88;;
21860;SDS011;11095;48.066;8.540;2023-03-21T14:11:56;3.40;;;2.97;;
21860;SDS011;11095;48.066;8.540;2023-03-21T14:14:28;3.45;;;2.67;;
21860;SDS011;11095;48.066;8.540;2023-03-21T14:17:10;3.72;;;2.60;;
21860;SDS011;11095;48.066;8.540;2023-03-21T14:19:57;4.38;;;3.42;;
21860;SDS011;11095;48.066;8.540;2023-03-21T14:22:36;3.88;;;3.25;;
21860;SDS011;11095;48.066;8.540;2023-03-21T14:25:03;5.13;;;3.70;;
21860;SDS011;11095;48.066;8.540;2023-03-21T14:27:35;3.58;;;3.20;;
21860;SDS011;11095;48.066;8.540;2023-03-21T14:30:02;3.58;;;3.17;;
21860;SDS011;11095;48.066;8.540;2023-03-21T14:32:28;3.40;;;3.10;;
21860;SDS011;11095;48.066;8.540;2023-03-21T14:34:55;3.10;;;2.80;;
21860;SDS011;11095;48.066;8.540;2023-03-21T14:39:59;3.58;;;3.10;;
21860;SDS011;11095;48.066;8.540;2023-03-21T14:42:27;3.97;;;3.10;;
21860;SDS011;11095;48.066;8.540;2023-03-21T14:44:58;4.03;;;3.53;;
21860;SDS011;11095;48.066;8.540;2023-03-21T14:47:27;4.10;;;3.25;;
21860;SDS011;11095;48.066;8.540;2023-03-21T14:49:54;5.38;;;3.67;;
21860;SDS011;11095;48.066;8.540;2023-03-21T14:52:25;3.42;;;3.13;;
21860;SDS011;11095;48.066;8.540;2023-03-21T14:54:56;4.32;;;3.28;;
21860;SDS011;11095;48.066;8.540;2023-03-21T14:57:24;3.08;;;2.78;;
21860;SDS011;11095;48.066;8.540;2023-03-21T15:02:31;3.97;;;3.55;;
21860;SDS011;11095;48.066;8.540;2023-03-21T15:05:09;3.88;;;3.58;;
21860;SDS011;11095;48.066;8.540;2023-03-21T15:07:38;3.30;;;3.00;;
21860;SDS011;11095;48.066;8.540;2023-03-21T15:10:06;3.83;;;3.38;;
21860;SDS011;11095;48.066;8.540;2023-03-21T15:12:50;5.40;;;3.40;;
21860;SDS011;11095;48.066;8.540;2023-03-21T15:15:16;4.32;;;3.22;;
21860;SDS011;11095;48.066;8.540;2023-03-21T15:17:42;5.03;;;3.63;;
21860;SDS011;11095;48.066;8.540;2023-03-21T15:20:12;4.07;;;3.10;;
21860;SDS011;11095;48.066;8.540;2023-03-21T15:22:40;3.85;;;2.92;;
21860;SDS011;11095;48.066;8.540;2023-03-21T15:25:12;6.18;;;3.80;;
21860;SDS011;11095;48.066;8.540;2023-03-21T15:27:43;4.85;;;3.95;;
21860;SDS011;11095;48.066;8.540;2023-03-21T15:30:22;5.78;;;3.70;;
21860;SDS011;11095;48.066;8.540;2023-03-21T15:32:50;6.80;;;3.75;;
21860;SDS011;11095;48.066;8.540;2023-03-21T15:35:27;4.28;;;3.80;;
21860;SDS011;11095;48.066;8.540;2023-03-21T15:37:59;5.10;;;4.60;;
21860;SDS011;11095;48.066;8.540;2023-03-21T15:40:27;4.30;;;3.85;;
21860;SDS011;11095;48.066;8.540;2023-03-21T15:43:04;5.00;;;4.33;;
21860;SDS011;11095;48.066;8.540;2023-03-21T15:45:31;5.88;;;4.80;;
21860;SDS011;11095;48.066;8.540;2023-03-21T15:48:00;4.40;;;3.83;;
21860;SDS011;11095;48.066;8.540;2023-03-21T15:50:36;4.90;;;4.40;;
21860;SDS011;11095;48.066;8.540;2023-03-21T15:53:15;5.10;;;4.00;;
21860;SDS011;11095;48.066;8.540;2023-03-21T15:55:47;4.35;;;3.80;;
21860;SDS011;11095;48.066;8.540;2023-03-21T15:58:23;6.43;;;4.50;;
21860;SDS011;11095;48.066;8.540;2023-03-21T16:00:55;5.60;;;4.15;;
21860;SDS011;11095;48.066;8.540;2023-03-21T16:03:26;4.32;;;3.92;;
21860;SDS011;11095;48.066;8.540;2023-03-21T16:08:36;5.10;;;4.20;;
21860;SDS011;11095;48.066;8.540;2023-03-21T16:13:46;4.40;;;4.00;;
21860;SDS011;11095;48.066;8.540;2023-03-21T16:16:18;4.85;;;4.15;;
21860;SDS011;11095;48.066;8.540;2023-03-21T16:18:45;5.00;;;4.50;;
21860;SDS011;11095;48.066;8.540;2023-03-21T16:21:11;5.35;;;4.50;;
21860;SDS011;11095;48.066;8.540;2023-03-21T16:23:38;5.88;;;5.10;;
21860;SDS011;11095;48.066;8.540;2023-03-21T16:26:04;5.57;;;5.07;;
21860;SDS011;11095;48.066;8.540;2023-03-21T16:28:30;6.25;;;5.18;;
21860;SDS011;11095;48.066;8.540;2023-03-21T16:30:56;6.15;;;5.45;;
21860;SDS011;11095;48.066;8.540;2023-03-21T16:33:22;6.50;;;5.90;;
21860;SDS011;11095;48.066;8.540;2023-03-21T16:35:49;5.65;;;5.15;;
21860;SDS011;11095;48.066;8.540;2023-03-21T16:38:16;6.85;;;6.10;;
21860;SDS011;11095;48.066;8.540;2023-03-21T16:40:41;6.75;;;5.80;;
21860;SDS011;11095;48.066;8.540;2023-03-21T16:43:08;6.43;;;4.93;;
21860;SDS011;11095;48.066;8.540;2023-03-21T16:45:35;6.45;;;5.32;;
21860;SDS011;11095;48.066;8.540;2023-03-21T16:48:01;6.22;;;5.40;;
21860;SDS011;11095;48.066;8.540;2023-03-21T16:52:57;6.75;;;5.28;;
21860;SDS011;11095;48.066;8.540;2023-03-21T16:55:23;5.18;;;4.68;;
21860;SDS011;11095;48.066;8.540;2023-03-21T16:57:50;5.65;;;4.80;;
21860;SDS011;11095;48.066;8.540;2023-03-21T17:00:17;5.53;;;4.68;;
21860;SDS011;11095;48.066;8.540;2023-03-21T17:02:51;4.95;;;4.45;;
21860;SDS011;11095;48.066;8.540;2023-03-21T17:05:19;4.35;;;3.08;;